OLBO2: North Canadian River

Data processed at Sat Nov 17 2018 22:02


All information presented herein is the property of the government of the United States of America and may be revised or deleted at any time without prior notice.
Dissemination of this information without the expressed written consent of the Public Affairs Office, Tulsa District U.S. Army Corps of Engineers is strictly prohibited.
These data are gathered electronically and, as presented, have not undergone any form of quality control. These data are not guaranteed to be valid or correct.
Go to home page.
Go to station list.
Go to home page.

Upstream stations:

Downstream station:
Previous Day
Next Day
Current Day
    
SHEF ID:       OLBO2     North Canadian River blw Lk Over
STATION TYPE:  

               PRECIP     STAGE  RIV-FLOW  WTR-TEMP   DIS-OXY   CONDUCT  BAT-LOAD
                   in        ft       cfs         F      mg/l   umho/cm      volt
              Ccp-Rev   Ccp-Rev   Ccp-Rev   Ccp-Rev   Ccp-Rev   Ccp-Rev   Ccp-Rev
(US/Central)
11/17 00:00      0.00      7.53       622     45.91     11.33      1513     12.60
11/17 01:00      0.00      7.54       625     45.84     11.34      1513     12.60
11/17 02:00      0.00      7.53       622     45.77     11.34      1512     12.60
11/17 03:00      0.00      7.55       627     45.66     11.35      1512     12.60
11/17 04:00      0.00      7.51       618     45.55     11.37      1512     12.54
11/17 05:00      0.00      7.51       618     45.45     11.38      1511     12.54
11/17 06:00      0.00      7.51       618     45.39     11.39      1512     12.54
11/17 07:00      0.00      7.50       615     45.37     11.40      1513     12.54
11/17 08:00      0.00      7.50       615     45.41     11.41      1511     12.54
11/17 09:00      0.00      7.49       613     45.57     11.42      1512     12.77
11/17 10:00      0.00      7.51       618     45.90     11.41      1516     13.71
11/17 11:00      0.00      7.51       618     46.26     11.38      1519     14.24
11/17 12:00      0.00      7.50       615     46.62     11.33      1520     14.06
11/17 13:00      0.00      7.48       610     47.01     11.28      1518     13.77
11/17 14:00      0.00      7.52       620     47.26     11.23      1518     13.65
11/17 15:00      0.00      7.51       618     47.43     11.19      1516     13.65
11/17 16:00      0.00      7.56       630     47.59     11.16      1515     13.71
11/17 17:00      0.00      7.69       662     47.59     11.14      1495     13.71
11/17 18:00      0.00      7.73       672     47.52     11.14      1478     13.30
11/17 19:00      0.00      7.74       675     47.37     11.17      1463     13.00
11/17 20:00      0.00      7.76       680     47.21     11.20      1451     12.83
11/17 21:00      0.00      7.77       682     47.01     11.23      1450     12.65
11/17 22:00      ----      ----      ----      ----      ----      ----      ----
11/17 23:00      ----      ----      ----      ----      ----      ----      ----